sensor_id;sensor_type;location;lat;lon;timestamp;pressure;altitude;pressure_sealevel;temperature;humidity
38163;BME280;23977;53.078;18.248;2023-03-11T00:00:59;98443.22;;;1.80;100.00
38163;BME280;23977;53.078;18.248;2023-03-11T00:03:27;98407.78;;;1.68;100.00
38163;BME280;23977;53.078;18.248;2023-03-11T00:05:53;98456.22;;;1.98;100.00
38163;BME280;23977;53.078;18.248;2023-03-11T00:08:22;98459.97;;;1.96;100.00
38163;BME280;23977;53.078;18.248;2023-03-11T00:10:57;98460.25;;;1.84;100.00
38163;BME280;23977;53.078;18.248;2023-03-11T00:13:26;98451.56;;;1.76;100.00
38163;BME280;23977;53.078;18.248;2023-03-11T00:15:53;98460.44;;;1.91;100.00
38163;BME280;23977;53.078;18.248;2023-03-11T00:18:26;98462.63;;;2.29;100.00
38163;BME280;23977;53.078;18.248;2023-03-11T00:20:55;98470.16;;;2.07;100.00
38163;BME280;23977;53.078;18.248;2023-03-11T00:23:22;98446.31;;;1.76;100.00
38163;BME280;23977;53.078;18.248;2023-03-11T00:25:48;98469.81;;;1.94;100.00
38163;BME280;23977;53.078;18.248;2023-03-11T00:28:14;98439.78;;;1.72;100.00
38163;BME280;23977;53.078;18.248;2023-03-11T00:30:42;98419.91;;;1.61;100.00
38163;BME280;23977;53.078;18.248;2023-03-11T00:33:11;98423.53;;;1.68;100.00
38163;BME280;23977;53.078;18.248;2023-03-11T00:35:36;98431.72;;;1.57;100.00
38163;BME280;23977;53.078;18.248;2023-03-11T00:38:07;98448.31;;;1.90;100.00
38163;BME280;23977;53.078;18.248;2023-03-11T00:40:34;98426.13;;;1.68;100.00
38163;BME280;23977;53.078;18.248;2023-03-11T00:43:01;98443.53;;;1.77;100.00
38163;BME280;23977;53.078;18.248;2023-03-11T00:45:27;98448.66;;;1.87;100.00
38163;BME280;23977;53.078;18.248;2023-03-11T00:47:54;98444.19;;;1.79;100.00
38163;BME280;23977;53.078;18.248;2023-03-11T00:50:23;98440.09;;;1.69;100.00
38163;BME280;23977;53.078;18.248;2023-03-11T00:52:49;98428.09;;;1.58;100.00
38163;BME280;23977;53.078;18.248;2023-03-11T00:55:18;98416.94;;;1.56;100.00
38163;BME280;23977;53.078;18.248;2023-03-11T00:57:45;98419.75;;;1.62;100.00
38163;BME280;23977;53.078;18.248;2023-03-11T01:00:16;98418.28;;;1.68;100.00
38163;BME280;23977;53.078;18.248;2023-03-11T01:02:42;98406.47;;;1.64;100.00
38163;BME280;23977;53.078;18.248;2023-03-11T01:05:08;98394.84;;;1.75;100.00
38163;BME280;23977;53.078;18.248;2023-03-11T01:07:34;98430.31;;;2.20;100.00
38163;BME280;23977;53.078;18.248;2023-03-11T01:10:01;98426.16;;;1.76;100.00
38163;BME280;23977;53.078;18.248;2023-03-11T01:12:27;98374.81;;;1.41;100.00
38163;BME280;23977;53.078;18.248;2023-03-11T01:14:53;98409.13;;;1.72;100.00
38163;BME280;23977;53.078;18.248;2023-03-11T01:17:19;98408.94;;;1.65;100.00
38163;BME280;23977;53.078;18.248;2023-03-11T01:19:47;98408.44;;;1.62;100.00
38163;BME280;23977;53.078;18.248;2023-03-11T01:22:13;98426.66;;;1.63;100.00
38163;BME280;23977;53.078;18.248;2023-03-11T01:24:38;98423.84;;;1.57;100.00
38163;BME280;23977;53.078;18.248;2023-03-11T01:27:04;98413.34;;;1.48;100.00
38163;BME280;23977;53.078;18.248;2023-03-11T01:29:29;98395.59;;;1.34;100.00
38163;BME280;23977;53.078;18.248;2023-03-11T01:31:55;98414.59;;;1.36;100.00
38163;BME280;23977;53.078;18.248;2023-03-11T01:34:21;98434.47;;;1.55;100.00
38163;BME280;23977;53.078;18.248;2023-03-11T01:36:46;98426.28;;;1.50;100.00
38163;BME280;23977;53.078;18.248;2023-03-11T01:39:12;98425.13;;;1.53;100.00
38163;BME280;23977;53.078;18.248;2023-03-11T01:41:38;98444.66;;;1.58;100.00
38163;BME280;23977;53.078;18.248;2023-03-11T01:44:04;98438.56;;;1.58;100.00
38163;BME280;23977;53.078;18.248;2023-03-11T01:46:34;98445.78;;;1.56;100.00
38163;BME280;23977;53.078;18.248;2023-03-11T01:49:02;98445.13;;;1.54;100.00
38163;BME280;23977;53.078;18.248;2023-03-11T01:51:32;98418.25;;;1.52;100.00
38163;BME280;23977;53.078;18.248;2023-03-11T01:54:02;98418.59;;;1.48;100.00
38163;BME280;23977;53.078;18.248;2023-03-11T01:56:29;98416.63;;;1.51;100.00
38163;BME280;23977;53.078;18.248;2023-03-11T01:58:56;98370.69;;;1.22;100.00
38163;BME280;23977;53.078;18.248;2023-03-11T02:01:23;98391.69;;;1.38;100.00
38163;BME280;23977;53.078;18.248;2023-03-11T02:03:49;98429.38;;;1.45;100.00
38163;BME280;23977;53.078;18.248;2023-03-11T02:06:20;98425.28;;;1.51;100.00
38163;BME280;23977;53.078;18.248;2023-03-11T02:08:49;98391.69;;;1.38;100.00
38163;BME280;23977;53.078;18.248;2023-03-11T02:11:21;98360.53;;;1.19;100.00
38163;BME280;23977;53.078;18.248;2023-03-11T02:13:50;98403.50;;;1.42;100.00
38163;BME280;23977;53.078;18.248;2023-03-11T02:16:16;98355.59;;;1.16;100.00
38163;BME280;23977;53.078;18.248;2023-03-11T02:18:42;98410.75;;;1.57;100.00
38163;BME280;23977;53.078;18.248;2023-03-11T02:21:31;98432.69;;;1.56;100.00
38163;BME280;23977;53.078;18.248;2023-03-11T02:24:03;98429.56;;;1.52;100.00
38163;BME280;23977;53.078;18.248;2023-03-11T02:26:50;98438.25;;;1.61;100.00
38163;BME280;23977;53.078;18.248;2023-03-11T02:29:16;98390.00;;;1.29;100.00
38163;BME280;23977;53.078;18.248;2023-03-11T02:31:42;98430.72;;;1.58;100.00
38163;BME280;23977;53.078;18.248;2023-03-11T02:34:15;98382.00;;;1.31;100.00
38163;BME280;23977;53.078;18.248;2023-03-11T02:36:43;98422.97;;;1.48;100.00
38163;BME280;23977;53.078;18.248;2023-03-11T02:39:09;98383.81;;;1.30;100.00
38163;BME280;23977;53.078;18.248;2023-03-11T02:41:42;98433.50;;;1.56;100.00
38163;BME280;23977;53.078;18.248;2023-03-11T02:44:10;98437.56;;;1.51;100.00
38163;BME280;23977;53.078;18.248;2023-03-11T02:46:39;98431.00;;;1.46;100.00
38163;BME280;23977;53.078;18.248;2023-03-11T02:49:07;98449.06;;;1.58;100.00
38163;BME280;23977;53.078;18.248;2023-03-11T02:51:34;98454.31;;;1.58;100.00
38163;BME280;23977;53.078;18.248;2023-03-11T02:54:03;98448.56;;;1.54;100.00
38163;BME280;23977;53.078;18.248;2023-03-11T02:56:29;98432.94;;;1.36;100.00
38163;BME280;23977;53.078;18.248;2023-03-11T02:58:55;98473.00;;;1.63;100.00
38163;BME280;23977;53.078;18.248;2023-03-11T03:01:21;98437.19;;;1.29;100.00
38163;BME280;23977;53.078;18.248;2023-03-11T03:03:46;98465.44;;;1.52;100.00
38163;BME280;23977;53.078;18.248;2023-03-11T03:06:13;98477.53;;;1.53;100.00
38163;BME280;23977;53.078;18.248;2023-03-11T03:08:39;98461.94;;;1.43;100.00
38163;BME280;23977;53.078;18.248;2023-03-11T03:11:05;98436.84;;;1.24;100.00
38163;BME280;23977;53.078;18.248;2023-03-11T03:13:30;98478.22;;;1.63;100.00
38163;BME280;23977;53.078;18.248;2023-03-11T03:15:57;98485.75;;;1.58;100.00
38163;BME280;23977;53.078;18.248;2023-03-11T03:18:24;98444.38;;;1.27;100.00
38163;BME280;23977;53.078;18.248;2023-03-11T03:20:50;98454.91;;;1.35;100.00
38163;BME280;23977;53.078;18.248;2023-03-11T03:23:17;98489.69;;;1.54;100.00
38163;BME280;23977;53.078;18.248;2023-03-11T03:25:43;98474.78;;;1.54;100.00
38163;BME280;23977;53.078;18.248;2023-03-11T03:28:10;98487.09;;;1.62;100.00
38163;BME280;23977;53.078;18.248;2023-03-11T03:30:36;98465.06;;;1.38;100.00
38163;BME280;23977;53.078;18.248;2023-03-11T03:33:02;98502.13;;;1.60;100.00
38163;BME280;23977;53.078;18.248;2023-03-11T03:35:29;98507.72;;;1.57;100.00
38163;BME280;23977;53.078;18.248;2023-03-11T03:37:55;98506.22;;;1.54;100.00
38163;BME280;23977;53.078;18.248;2023-03-11T03:40:21;98482.22;;;1.33;100.00
38163;BME280;23977;53.078;18.248;2023-03-11T03:42:46;98512.63;;;1.52;100.00
38163;BME280;23977;53.078;18.248;2023-03-11T03:45:13;98510.16;;;1.50;100.00
38163;BME280;23977;53.078;18.248;2023-03-11T03:47:39;98472.69;;;1.23;100.00
38163;BME280;23977;53.078;18.248;2023-03-11T03:50:07;98512.63;;;1.52;100.00
38163;BME280;23977;53.078;18.248;2023-03-11T03:52:36;98525.22;;;1.56;100.00
38163;BME280;23977;53.078;18.248;2023-03-11T03:55:03;98523.41;;;1.48;100.00
38163;BME280;23977;53.078;18.248;2023-03-11T03:57:29;98504.53;;;1.37;100.00
38163;BME280;23977;53.078;18.248;2023-03-11T03:59:55;98533.97;;;1.73;100.00
38163;BME280;23977;53.078;18.248;2023-03-11T04:02:21;98497.50;;;1.45;100.00
38163;BME280;23977;53.078;18.248;2023-03-11T04:04:47;98514.66;;;1.40;100.00
38163;BME280;23977;53.078;18.248;2023-03-11T04:07:12;98537.16;;;1.51;100.00
38163;BME280;23977;53.078;18.248;2023-03-11T04:09:40;98515.97;;;1.36;100.00
38163;BME280;23977;53.078;18.248;2023-03-11T04:12:06;98504.97;;;1.32;100.00
38163;BME280;23977;53.078;18.248;2023-03-11T04:14:32;98465.28;;;1.19;100.00
38163;BME280;23977;53.078;18.248;2023-03-11T04:16:58;98527.97;;;1.46;100.00
38163;BME280;23977;53.078;18.248;2023-03-11T04:19:23;98511.50;;;1.28;100.00
38163;BME280;23977;53.078;18.248;2023-03-11T04:21:49;98514.81;;;1.30;100.00
38163;BME280;23977;53.078;18.248;2023-03-11T04:24:17;98488.31;;;1.07;100.00
38163;BME280;23977;53.078;18.248;2023-03-11T04:26:43;98499.66;;;1.16;100.00
38163;BME280;23977;53.078;18.248;2023-03-11T04:29:09;98551.25;;;1.50;100.00
38163;BME280;23977;53.078;18.248;2023-03-11T04:31:35;98539.41;;;1.37;100.00
38163;BME280;23977;53.078;18.248;2023-03-11T04:34:00;98559.59;;;1.45;100.00
38163;BME280;23977;53.078;18.248;2023-03-11T04:36:26;98552.38;;;1.47;100.00
38163;BME280;23977;53.078;18.248;2023-03-11T04:38:52;98509.56;;;1.30;100.00
38163;BME280;23977;53.078;18.248;2023-03-11T04:41:17;98522.78;;;1.20;100.00
38163;BME280;23977;53.078;18.248;2023-03-11T04:43:43;98553.81;;;1.41;100.00
38163;BME280;23977;53.078;18.248;2023-03-11T04:46:09;98548.56;;;1.41;100.00
38163;BME280;23977;53.078;18.248;2023-03-11T04:48:35;98484.19;;;1.04;100.00
38163;BME280;23977;53.078;18.248;2023-03-11T04:51:01;98494.28;;;1.17;100.00
38163;BME280;23977;53.078;18.248;2023-03-11T04:53:26;98513.25;;;1.19;100.00
38163;BME280;23977;53.078;18.248;2023-03-11T04:55:52;98575.53;;;1.52;100.00
38163;BME280;23977;53.078;18.248;2023-03-11T04:58:19;98574.22;;;1.56;100.00
38163;BME280;23977;53.078;18.248;2023-03-11T05:00:44;98577.09;;;1.44;100.00
38163;BME280;23977;53.078;18.248;2023-03-11T05:03:10;98534.97;;;1.11;100.00
38163;BME280;23977;53.078;18.248;2023-03-11T05:05:36;98579.81;;;1.35;100.00
38163;BME280;23977;53.078;18.248;2023-03-11T05:08:02;98607.44;;;1.47;100.00
38163;BME280;23977;53.078;18.248;2023-03-11T05:10:28;98611.66;;;1.48;100.00
38163;BME280;23977;53.078;18.248;2023-03-11T05:12:54;98614.78;;;1.43;100.00
38163;BME280;23977;53.078;18.248;2023-03-11T05:15:19;98563.50;;;1.15;100.00
38163;BME280;23977;53.078;18.248;2023-03-11T05:17:45;98611.25;;;1.61;100.00
38163;BME280;23977;53.078;18.248;2023-03-11T05:20:12;98615.19;;;1.57;100.00
38163;BME280;23977;53.078;18.248;2023-03-11T05:22:37;98626.28;;;1.51;100.00
38163;BME280;23977;53.078;18.248;2023-03-11T05:25:04;98634.16;;;1.51;100.00
38163;BME280;23977;53.078;18.248;2023-03-11T05:27:30;98587.78;;;1.25;100.00
38163;BME280;23977;53.078;18.248;2023-03-11T05:29:56;98625.94;;;1.45;100.00
38163;BME280;23977;53.078;18.248;2023-03-11T05:32:22;98645.91;;;1.46;100.00
38163;BME280;23977;53.078;18.248;2023-03-11T05:34:48;98643.56;;;1.35;100.00
38163;BME280;23977;53.078;18.248;2023-03-11T05:37:14;98656.03;;;1.41;100.00
38163;BME280;23977;53.078;18.248;2023-03-11T05:39:39;98652.97;;;1.28;100.00
38163;BME280;23977;53.078;18.248;2023-03-11T05:42:06;98660.28;;;1.42;100.00
38163;BME280;23977;53.078;18.248;2023-03-11T05:44:32;98665.59;;;1.51;100.00
38163;BME280;23977;53.078;18.248;2023-03-11T05:46:59;98673.75;;;1.47;100.00
38163;BME280;23977;53.078;18.248;2023-03-11T05:49:25;98673.75;;;1.47;100.00
38163;BME280;23977;53.078;18.248;2023-03-11T05:51:51;98654.28;;;1.24;100.00
38163;BME280;23977;53.078;18.248;2023-03-11T05:54:18;98684.34;;;1.38;100.00
38163;BME280;23977;53.078;18.248;2023-03-11T05:56:46;98689.06;;;1.34;100.00
38163;BME280;23977;53.078;18.248;2023-03-11T05:59:12;98666.38;;;1.25;100.00
38163;BME280;23977;53.078;18.248;2023-03-11T06:01:39;98703.88;;;1.43;100.00
38163;BME280;23977;53.078;18.248;2023-03-11T06:04:05;98709.44;;;1.40;100.00
38163;BME280;23977;53.078;18.248;2023-03-11T06:06:31;98669.91;;;1.16;100.00
38163;BME280;23977;53.078;18.248;2023-03-11T06:08:56;98705.81;;;1.41;100.00
38163;BME280;23977;53.078;18.248;2023-03-11T06:11:23;98702.81;;;1.36;100.00
38163;BME280;23977;53.078;18.248;2023-03-11T06:13:54;98732.81;;;1.60;100.00
38163;BME280;23977;53.078;18.248;2023-03-11T06:16:21;98739.03;;;1.59;100.00
38163;BME280;23977;53.078;18.248;2023-03-11T06:18:47;98738.31;;;1.48;100.00
38163;BME280;23977;53.078;18.248;2023-03-11T06:21:20;98724.53;;;1.46;100.00
38163;BME280;23977;53.078;18.248;2023-03-11T06:23:47;98748.59;;;1.68;100.00
38163;BME280;23977;53.078;18.248;2023-03-11T06:26:15;98768.25;;;1.64;100.00
38163;BME280;23977;53.078;18.248;2023-03-11T06:28:42;98761.97;;;1.57;100.00
38163;BME280;23977;53.078;18.248;2023-03-11T06:31:15;98794.09;;;2.03;100.00
38163;BME280;23977;53.078;18.248;2023-03-11T06:33:41;98760.03;;;1.59;100.00
38163;BME280;23977;53.078;18.248;2023-03-11T06:36:09;98800.06;;;1.87;100.00
38163;BME280;23977;53.078;18.248;2023-03-11T06:38:35;98777.06;;;1.63;100.00
38163;BME280;23977;53.078;18.248;2023-03-11T06:41:02;98808.88;;;1.86;100.00
38163;BME280;23977;53.078;18.248;2023-03-11T06:43:29;98802.91;;;1.76;100.00
38163;BME280;23977;53.078;18.248;2023-03-11T06:45:57;98818.72;;;1.66;100.00
38163;BME280;23977;53.078;18.248;2023-03-11T06:48:23;98825.19;;;1.72;100.00
38163;BME280;23977;53.078;18.248;2023-03-11T06:50:56;98840.44;;;1.76;100.00
38163;BME280;23977;53.078;18.248;2023-03-11T06:53:22;98834.47;;;1.66;100.00
38163;BME280;23977;53.078;18.248;2023-03-11T06:56:06;98854.38;;;1.59;100.00
38163;BME280;23977;53.078;18.248;2023-03-11T06:58:34;98845.09;;;1.64;100.00
38163;BME280;23977;53.078;18.248;2023-03-11T07:01:06;98867.22;;;1.80;100.00
38163;BME280;23977;53.078;18.248;2023-03-11T07:03:32;98873.56;;;1.77;100.00
38163;BME280;23977;53.078;18.248;2023-03-11T07:05:58;98882.78;;;1.63;100.00
38163;BME280;23977;53.078;18.248;2023-03-11T07:08:24;98891.63;;;1.62;100.00
38163;BME280;23977;53.078;18.248;2023-03-11T07:11:06;98889.94;;;1.61;100.00
38163;BME280;23977;53.078;18.248;2023-03-11T07:13:33;98916.41;;;1.86;100.00
38163;BME280;23977;53.078;18.248;2023-03-11T07:16:04;98917.56;;;1.83;100.00
38163;BME280;23977;53.078;18.248;2023-03-11T07:18:31;98936.38;;;1.97;100.00
38163;BME280;23977;53.078;18.248;2023-03-11T07:20:57;98914.63;;;1.87;100.00
38163;BME280;23977;53.078;18.248;2023-03-11T07:23:23;98929.53;;;1.86;100.00
38163;BME280;23977;53.078;18.248;2023-03-11T07:25:49;98957.72;;;1.84;100.00
38163;BME280;23977;53.078;18.248;2023-03-11T07:28:16;98879.31;;;1.45;100.00
38163;BME280;23977;53.078;18.248;2023-03-11T07:30:41;98941.16;;;1.83;100.00
38163;BME280;23977;53.078;18.248;2023-03-11T07:33:08;98973.31;;;2.03;100.00
38163;BME280;23977;53.078;18.248;2023-03-11T07:35:34;98969.25;;;1.91;100.00
38163;BME280;23977;53.078;18.248;2023-03-11T07:38:00;98931.34;;;1.85;100.00
38163;BME280;23977;53.078;18.248;2023-03-11T07:40:26;98984.63;;;2.04;100.00
38163;BME280;23977;53.078;18.248;2023-03-11T07:42:51;98990.16;;;2.01;100.00
38163;BME280;23977;53.078;18.248;2023-03-11T07:45:17;98984.09;;;2.00;100.00
38163;BME280;23977;53.078;18.248;2023-03-11T07:47:43;99004.41;;;2.16;100.00
38163;BME280;23977;53.078;18.248;2023-03-11T07:50:09;99010.28;;;2.10;100.00
38163;BME280;23977;53.078;18.248;2023-03-11T07:52:35;99009.34;;;1.83;100.00
38163;BME280;23977;53.078;18.248;2023-03-11T07:55:01;99018.34;;;1.99;100.00
38163;BME280;23977;53.078;18.248;2023-03-11T07:57:26;99024.00;;;1.76;100.00
38163;BME280;23977;53.078;18.248;2023-03-11T07:59:52;98971.81;;;1.27;100.00
38163;BME280;23977;53.078;18.248;2023-03-11T08:02:18;99023.50;;;1.63;100.00
38163;BME280;23977;53.078;18.248;2023-03-11T08:04:44;99032.13;;;1.55;100.00
38163;BME280;23977;53.078;18.248;2023-03-11T08:07:09;99015.94;;;1.32;100.00
38163;BME280;23977;53.078;18.248;2023-03-11T08:09:35;99006.06;;;1.06;100.00
38163;BME280;23977;53.078;18.248;2023-03-11T08:12:01;98950.25;;;0.68;100.00
38163;BME280;23977;53.078;18.248;2023-03-11T08:14:27;99055.06;;;1.43;100.00
38163;BME280;23977;53.078;18.248;2023-03-11T08:16:52;99073.22;;;1.55;100.00
38163;BME280;23977;53.078;18.248;2023-03-11T08:19:18;99071.34;;;1.37;100.00
38163;BME280;23977;53.078;18.248;2023-03-11T08:21:44;99014.69;;;0.79;100.00
38163;BME280;23977;53.078;18.248;2023-03-11T08:24:12;99098.41;;;1.28;100.00
38163;BME280;23977;53.078;18.248;2023-03-11T08:26:38;99079.13;;;1.09;100.00
38163;BME280;23977;53.078;18.248;2023-03-11T08:29:04;99071.47;;;0.79;100.00
38163;BME280;23977;53.078;18.248;2023-03-11T08:31:31;99077.81;;;0.86;100.00
38163;BME280;23977;53.078;18.248;2023-03-11T08:34:01;99127.69;;;1.14;100.00
38163;BME280;23977;53.078;18.248;2023-03-11T08:36:28;99075.03;;;0.97;100.00
38163;BME280;23977;53.078;18.248;2023-03-11T08:38:54;99119.38;;;1.28;100.00
38163;BME280;23977;53.078;18.248;2023-03-11T08:41:20;99132.31;;;1.39;100.00
38163;BME280;23977;53.078;18.248;2023-03-11T08:43:46;99149.97;;;1.37;100.00
38163;BME280;23977;53.078;18.248;2023-03-11T08:46:23;99151.34;;;1.41;100.00
38163;BME280;23977;53.078;18.248;2023-03-11T08:48:49;99111.13;;;1.13;100.00
38163;BME280;23977;53.078;18.248;2023-03-11T08:51:14;99153.28;;;1.49;100.00
38163;BME280;23977;53.078;18.248;2023-03-11T08:53:41;99164.44;;;1.51;100.00
38163;BME280;23977;53.078;18.248;2023-03-11T08:56:08;99183.50;;;1.43;100.00
38163;BME280;23977;53.078;18.248;2023-03-11T08:58:34;99183.09;;;1.38;100.00
38163;BME280;23977;53.078;18.248;2023-03-11T09:01:00;99188.88;;;1.22;100.00
38163;BME280;23977;53.078;18.248;2023-03-11T09:03:26;99130.44;;;0.92;100.00
38163;BME280;23977;53.078;18.248;2023-03-11T09:05:58;99153.06;;;0.94;100.00
38163;BME280;23977;53.078;18.248;2023-03-11T09:08:25;99225.56;;;1.42;100.00
38163;BME280;23977;53.078;18.248;2023-03-11T09:10:50;99223.91;;;1.51;100.00
38163;BME280;23977;53.078;18.248;2023-03-11T09:13:17;99238.78;;;1.60;100.00
38163;BME280;23977;53.078;18.248;2023-03-11T09:15:42;99230.09;;;1.50;100.00
38163;BME280;23977;53.078;18.248;2023-03-11T09:18:12;99229.69;;;1.54;100.00
38163;BME280;23977;53.078;18.248;2023-03-11T09:20:39;99209.84;;;1.52;100.00
38163;BME280;23977;53.078;18.248;2023-03-11T09:23:06;99233.75;;;1.96;100.00
38163;BME280;23977;53.078;18.248;2023-03-11T09:25:31;99236.78;;;2.01;100.00
38163;BME280;23977;53.078;18.248;2023-03-11T09:27:57;99273.19;;;2.24;100.00
38163;BME280;23977;53.078;18.248;2023-03-11T09:30:23;99281.09;;;2.04;100.00
38163;BME280;23977;53.078;18.248;2023-03-11T09:32:48;99290.91;;;1.92;100.00
38163;BME280;23977;53.078;18.248;2023-03-11T09:35:14;99299.97;;;2.17;100.00
38163;BME280;23977;53.078;18.248;2023-03-11T09:37:40;99296.16;;;2.02;100.00
38163;BME280;23977;53.078;18.248;2023-03-11T09:40:06;99306.13;;;1.89;100.00
38163;BME280;23977;53.078;18.248;2023-03-11T09:48:06;99331.38;;;1.90;100.00
38163;BME280;23977;53.078;18.248;2023-03-11T09:50:46;99341.56;;;2.12;100.00
38163;BME280;23977;53.078;18.248;2023-03-11T09:56:06;99335.13;;;1.77;100.00
38163;BME280;23977;53.078;18.248;2023-03-11T09:58:46;99365.06;;;1.94;100.00
38163;BME280;23977;53.078;18.248;2023-03-11T10:03:48;99369.88;;;1.79;100.00
38163;BME280;23977;53.078;18.248;2023-03-11T10:06:23;99368.53;;;1.75;100.00
38163;BME280;23977;53.078;18.248;2023-03-11T10:17:49;99410.63;;;2.03;100.00
38163;BME280;23977;53.078;18.248;2023-03-11T10:20:49;99397.25;;;1.87;100.00
38163;BME280;23977;53.078;18.248;2023-03-11T10:23:29;99433.13;;;2.15;100.00
38163;BME280;23977;53.078;18.248;2023-03-11T10:26:13;99403.16;;;2.08;100.00
38163;BME280;23977;53.078;18.248;2023-03-11T10:28:53;99426.50;;;2.31;100.00
38163;BME280;23977;53.078;18.248;2023-03-11T10:31:25;99432.25;;;2.54;100.00
38163;BME280;23977;53.078;18.248;2023-03-11T10:33:55;99394.13;;;2.50;100.00
38163;BME280;23977;53.078;18.248;2023-03-11T10:36:28;99395.22;;;2.57;100.00
38163;BME280;23977;53.078;18.248;2023-03-11T10:38:58;99450.59;;;3.21;98.71
38163;BME280;23977;53.078;18.248;2023-03-11T10:41:58;99413.44;;;3.06;96.64
38163;BME280;23977;53.078;18.248;2023-03-11T10:44:28;99458.31;;;3.32;97.19
38163;BME280;23977;53.078;18.248;2023-03-11T10:46:56;99466.91;;;3.24;96.73
38163;BME280;23977;53.078;18.248;2023-03-11T10:49:22;99465.88;;;2.97;99.09
38163;BME280;23977;53.078;18.248;2023-03-11T10:51:50;99451.47;;;3.11;99.58
38163;BME280;23977;53.078;18.248;2023-03-11T10:56:58;99477.59;;;2.66;100.00
38163;BME280;23977;53.078;18.248;2023-03-11T10:59:31;99478.34;;;2.95;100.00
38163;BME280;23977;53.078;18.248;2023-03-11T11:02:22;99491.59;;;3.04;97.75
38163;BME280;23977;53.078;18.248;2023-03-11T11:07:41;99502.78;;;3.06;97.65
38163;BME280;23977;53.078;18.248;2023-03-11T11:13:14;99449.63;;;2.74;95.99
38163;BME280;23977;53.078;18.248;2023-03-11T11:16:03;99502.69;;;2.97;100.00
38163;BME280;23977;53.078;18.248;2023-03-11T11:18:41;99503.44;;;3.18;99.48
38163;BME280;23977;53.078;18.248;2023-03-11T11:21:13;99473.31;;;3.12;97.99
38163;BME280;23977;53.078;18.248;2023-03-11T11:23:48;99491.38;;;2.87;94.49
38163;BME280;23977;53.078;18.248;2023-03-11T11:26:23;99499.66;;;2.92;95.78
38163;BME280;23977;53.078;18.248;2023-03-11T11:31:38;99531.22;;;2.53;98.75
38163;BME280;23977;53.078;18.248;2023-03-11T11:36:51;99474.97;;;1.88;100.00
38163;BME280;23977;53.078;18.248;2023-03-11T11:39:19;99538.53;;;2.30;100.00
38163;BME280;23977;53.078;18.248;2023-03-11T11:41:47;99543.66;;;2.51;100.00
38163;BME280;23977;53.078;18.248;2023-03-11T11:44:17;99544.91;;;2.76;98.96
38163;BME280;23977;53.078;18.248;2023-03-11T11:46:59;99537.25;;;2.93;98.00
38163;BME280;23977;53.078;18.248;2023-03-11T11:49:30;99571.53;;;3.21;97.01
38163;BME280;23977;53.078;18.248;2023-03-11T11:54:33;99572.03;;;3.34;94.54
38163;BME280;23977;53.078;18.248;2023-03-11T11:57:11;99551.00;;;3.34;96.48
38163;BME280;23977;53.078;18.248;2023-03-11T11:59:37;99560.88;;;3.22;95.81
38163;BME280;23977;53.078;18.248;2023-03-11T12:04:52;99574.63;;;3.81;95.64
38163;BME280;23977;53.078;18.248;2023-03-11T12:10:53;99533.56;;;3.70;89.49
38163;BME280;23977;53.078;18.248;2023-03-11T12:24:22;99553.75;;;3.98;90.11
38163;BME280;23977;53.078;18.248;2023-03-11T12:26:57;99623.31;;;4.23;88.16
38163;BME280;23977;53.078;18.248;2023-03-11T12:29:41;99585.97;;;3.54;87.72
38163;BME280;23977;53.078;18.248;2023-03-11T12:32:21;99591.66;;;3.40;87.58
38163;BME280;23977;53.078;18.248;2023-03-11T12:34:48;99643.56;;;3.47;88.62
38163;BME280;23977;53.078;18.248;2023-03-11T12:37:14;99652.41;;;3.56;90.71
38163;BME280;23977;53.078;18.248;2023-03-11T12:39:42;99632.91;;;3.49;87.02
38163;BME280;23977;53.078;18.248;2023-03-11T12:42:22;99585.34;;;3.13;86.40
38163;BME280;23977;53.078;18.248;2023-03-11T12:44:49;99627.13;;;3.36;84.43
38163;BME280;23977;53.078;18.248;2023-03-11T12:49:54;99673.28;;;3.67;85.56
38163;BME280;23977;53.078;18.248;2023-03-11T12:52:23;99673.41;;;3.76;83.70
38163;BME280;23977;53.078;18.248;2023-03-11T13:00:32;99689.47;;;3.73;86.41
38163;BME280;23977;53.078;18.248;2023-03-11T13:05:53;99687.88;;;3.89;84.51
38163;BME280;23977;53.078;18.248;2023-03-11T13:09:10;99709.25;;;3.86;83.39
38163;BME280;23977;53.078;18.248;2023-03-11T13:16:41;99702.09;;;3.69;79.68
38163;BME280;23977;53.078;18.248;2023-03-11T13:21:55;99695.47;;;3.16;81.14
38163;BME280;23977;53.078;18.248;2023-03-11T13:36:01;99767.06;;;4.16;76.91
38163;BME280;23977;53.078;18.248;2023-03-11T13:41:30;99755.66;;;4.35;75.44
38163;BME280;23977;53.078;18.248;2023-03-11T13:44:08;99740.69;;;4.35;76.48
38163;BME280;23977;53.078;18.248;2023-03-11T13:46:38;99799.78;;;4.60;74.50
38163;BME280;23977;53.078;18.248;2023-03-11T13:49:24;99773.94;;;4.36;73.35
38163;BME280;23977;53.078;18.248;2023-03-11T13:51:53;99717.56;;;3.82;74.40
38163;BME280;23977;53.078;18.248;2023-03-11T13:55:00;99809.03;;;4.27;73.27
38163;BME280;23977;53.078;18.248;2023-03-11T13:57:29;99813.66;;;3.96;74.25
38163;BME280;23977;53.078;18.248;2023-03-11T14:00:04;99829.50;;;3.66;73.76
38163;BME280;23977;53.078;18.248;2023-03-11T14:02:31;99808.03;;;3.42;75.68
38163;BME280;23977;53.078;18.248;2023-03-11T14:05:02;99822.41;;;3.57;75.95
38163;BME280;23977;53.078;18.248;2023-03-11T14:07:30;99822.41;;;3.57;76.58
38163;BME280;23977;53.078;18.248;2023-03-11T14:12:37;99823.25;;;3.67;76.03
38163;BME280;23977;53.078;18.248;2023-03-11T14:15:13;99853.69;;;3.89;77.02
38163;BME280;23977;53.078;18.248;2023-03-11T14:17:42;99858.56;;;3.94;78.13
38163;BME280;23977;53.078;18.248;2023-03-11T14:20:18;99856.47;;;3.98;77.94
38163;BME280;23977;53.078;18.248;2023-03-11T14:22:53;99869.78;;;3.96;77.71
38163;BME280;23977;53.078;18.248;2023-03-11T14:25:25;99828.66;;;3.76;78.09
38163;BME280;23977;53.078;18.248;2023-03-11T14:28:03;99875.75;;;3.98;80.02
38163;BME280;23977;53.078;18.248;2023-03-11T14:30:32;99881.00;;;3.98;78.90